sensor_id;sensor_type;location;lat;lon;timestamp;temperature;humidity
42979;DHT22;28616;44.746;19.678;2022-07-01T01:19:42;25.00;99.90
42979;DHT22;28616;44.746;19.678;2022-07-01T01:22:08;25.00;99.90
42979;DHT22;28616;44.746;19.678;2022-07-01T01:24:36;24.90;99.90
42979;DHT22;28616;44.746;19.678;2022-07-01T01:27:05;24.80;99.90
42979;DHT22;28616;44.746;19.678;2022-07-01T01:29:32;24.80;99.90
42979;DHT22;28616;44.746;19.678;2022-07-01T01:31:58;24.70;99.90
42979;DHT22;28616;44.746;19.678;2022-07-01T01:34:24;24.70;99.90
42979;DHT22;28616;44.746;19.678;2022-07-01T01:36:49;24.70;99.90
42979;DHT22;28616;44.746;19.678;2022-07-01T01:39:15;24.60;99.90
42979;DHT22;28616;44.746;19.678;2022-07-01T01:41:42;24.60;99.90
42979;DHT22;28616;44.746;19.678;2022-07-01T01:44:08;24.50;99.90
42979;DHT22;28616;44.746;19.678;2022-07-01T01:46:34;24.50;99.90
42979;DHT22;28616;44.746;19.678;2022-07-01T01:49:00;24.40;99.90
42979;DHT22;28616;44.746;19.678;2022-07-01T01:51:27;24.40;99.90
42979;DHT22;28616;44.746;19.678;2022-07-01T01:53:52;24.30;99.90
42979;DHT22;28616;44.746;19.678;2022-07-01T01:56:18;24.20;99.90
42979;DHT22;28616;44.746;19.678;2022-07-01T01:58:44;24.20;99.90
42979;DHT22;28616;44.746;19.678;2022-07-01T02:01:11;24.20;99.90
42979;DHT22;28616;44.746;19.678;2022-07-01T02:03:38;24.10;99.90
42979;DHT22;28616;44.746;19.678;2022-07-01T02:06:05;24.10;99.90
42979;DHT22;28616;44.746;19.678;2022-07-01T02:08:32;24.10;99.90
42979;DHT22;28616;44.746;19.678;2022-07-01T02:10:58;24.10;99.90
42979;DHT22;28616;44.746;19.678;2022-07-01T02:13:24;24.00;99.90
42979;DHT22;28616;44.746;19.678;2022-07-01T02:15:50;24.00;99.90
42979;DHT22;28616;44.746;19.678;2022-07-01T02:18:16;24.00;99.90
42979;DHT22;28616;44.746;19.678;2022-07-01T02:20:43;24.00;99.90
42979;DHT22;28616;44.746;19.678;2022-07-01T02:23:09;24.00;99.90
42979;DHT22;28616;44.746;19.678;2022-07-01T02:25:36;24.00;99.90
42979;DHT22;28616;44.746;19.678;2022-07-01T02:28:03;23.90;99.90
42979;DHT22;28616;44.746;19.678;2022-07-01T02:30:29;24.00;99.90
42979;DHT22;28616;44.746;19.678;2022-07-01T02:33:00;24.00;99.90
42979;DHT22;28616;44.746;19.678;2022-07-01T02:35:26;23.90;99.90
42979;DHT22;28616;44.746;19.678;2022-07-01T02:37:52;23.90;99.90
42979;DHT22;28616;44.746;19.678;2022-07-01T02:40:17;23.90;99.90
42979;DHT22;28616;44.746;19.678;2022-07-01T02:42:43;23.90;99.90
42979;DHT22;28616;44.746;19.678;2022-07-01T02:45:09;23.80;99.90
42979;DHT22;28616;44.746;19.678;2022-07-01T02:47:36;23.80;99.90
42979;DHT22;28616;44.746;19.678;2022-07-01T02:50:07;23.80;99.90
42979;DHT22;28616;44.746;19.678;2022-07-01T02:52:34;23.80;99.90
42979;DHT22;28616;44.746;19.678;2022-07-01T02:55:01;23.80;99.90
42979;DHT22;28616;44.746;19.678;2022-07-01T02:57:27;23.80;99.90
42979;DHT22;28616;44.746;19.678;2022-07-01T02:59:53;23.70;99.90
42979;DHT22;28616;44.746;19.678;2022-07-01T03:02:20;23.60;99.90
42979;DHT22;28616;44.746;19.678;2022-07-01T03:04:47;23.60;99.90
42979;DHT22;28616;44.746;19.678;2022-07-01T03:07:14;23.50;99.90
42979;DHT22;28616;44.746;19.678;2022-07-01T03:09:40;23.50;99.90
42979;DHT22;28616;44.746;19.678;2022-07-01T03:12:07;23.50;99.90
42979;DHT22;28616;44.746;19.678;2022-07-01T03:14:53;23.40;99.90
42979;DHT22;28616;44.746;19.678;2022-07-01T03:17:20;23.40;99.90
42979;DHT22;28616;44.746;19.678;2022-07-01T03:19:46;23.40;99.90
42979;DHT22;28616;44.746;19.678;2022-07-01T03:22:12;23.50;99.90
42979;DHT22;28616;44.746;19.678;2022-07-01T03:24:38;23.50;99.90
42979;DHT22;28616;44.746;19.678;2022-07-01T03:27:04;23.50;99.90
42979;DHT22;28616;44.746;19.678;2022-07-01T03:29:30;23.50;99.90
42979;DHT22;28616;44.746;19.678;2022-07-01T03:31:55;23.50;99.90
42979;DHT22;28616;44.746;19.678;2022-07-01T03:34:21;23.60;99.90
42979;DHT22;28616;44.746;19.678;2022-07-01T03:36:47;23.60;99.90
42979;DHT22;28616;44.746;19.678;2022-07-01T03:39:13;23.60;99.90
42979;DHT22;28616;44.746;19.678;2022-07-01T03:41:39;23.60;99.90
42979;DHT22;28616;44.746;19.678;2022-07-01T03:44:05;23.60;99.90
42979;DHT22;28616;44.746;19.678;2022-07-01T03:46:33;23.50;99.90
42979;DHT22;28616;44.746;19.678;2022-07-01T03:49:01;23.60;99.90
42979;DHT22;28616;44.746;19.678;2022-07-01T03:51:27;23.60;99.90
42979;DHT22;28616;44.746;19.678;2022-07-01T03:53:53;23.60;99.90
42979;DHT22;28616;44.746;19.678;2022-07-01T03:56:37;23.60;99.90
42979;DHT22;28616;44.746;19.678;2022-07-01T03:59:03;23.70;99.90
42979;DHT22;28616;44.746;19.678;2022-07-01T04:01:29;23.70;99.90
42979;DHT22;28616;44.746;19.678;2022-07-01T04:06:21;23.90;99.90
42979;DHT22;28616;44.746;19.678;2022-07-01T04:08:48;23.90;99.90
42979;DHT22;28616;44.746;19.678;2022-07-01T04:11:15;23.90;99.90
42979;DHT22;28616;44.746;19.678;2022-07-01T04:13:41;23.90;99.90
42979;DHT22;28616;44.746;19.678;2022-07-01T04:16:12;24.00;99.90
42979;DHT22;28616;44.746;19.678;2022-07-01T04:21:04;24.10;99.90
